sensor_id;sensor_type;location;lat;lon;timestamp;P1;durP1;ratioP1;P2;durP2;ratioP2
12441;SDS011;6285;48.804;9.220;2022-10-17T00:00:10;12.32;;;6.00;;
12441;SDS011;6285;48.804;9.220;2022-10-17T00:02:37;8.75;;;6.38;;
12441;SDS011;6285;48.804;9.220;2022-10-17T00:05:04;7.07;;;5.22;;
12441;SDS011;6285;48.804;9.220;2022-10-17T00:07:33;9.05;;;6.32;;
12441;SDS011;6285;48.804;9.220;2022-10-17T00:10:00;9.93;;;6.60;;
12441;SDS011;6285;48.804;9.220;2022-10-17T00:12:27;11.00;;;6.45;;
12441;SDS011;6285;48.804;9.220;2022-10-17T00:14:54;8.50;;;6.03;;
12441;SDS011;6285;48.804;9.220;2022-10-17T00:17:21;12.50;;;6.40;;
12441;SDS011;6285;48.804;9.220;2022-10-17T00:19:48;14.18;;;6.45;;
12441;SDS011;6285;48.804;9.220;2022-10-17T00:22:15;13.40;;;6.85;;
12441;SDS011;6285;48.804;9.220;2022-10-17T00:24:44;12.20;;;6.47;;
12441;SDS011;6285;48.804;9.220;2022-10-17T00:27:11;10.27;;;6.18;;
12441;SDS011;6285;48.804;9.220;2022-10-17T00:29:38;9.65;;;6.03;;
12441;SDS011;6285;48.804;9.220;2022-10-17T00:32:05;12.23;;;6.22;;
12441;SDS011;6285;48.804;9.220;2022-10-17T00:34:32;9.40;;;6.47;;
12441;SDS011;6285;48.804;9.220;2022-10-17T00:36:59;12.10;;;6.57;;
12441;SDS011;6285;48.804;9.220;2022-10-17T00:39:26;13.88;;;6.30;;
12441;SDS011;6285;48.804;9.220;2022-10-17T00:41:55;12.00;;;6.55;;
12441;SDS011;6285;48.804;9.220;2022-10-17T00:47:30;9.27;;;5.43;;
12441;SDS011;6285;48.804;9.220;2022-10-17T00:49:58;9.40;;;5.05;;
12441;SDS011;6285;48.804;9.220;2022-10-17T00:52:26;8.45;;;4.80;;
12441;SDS011;6285;48.804;9.220;2022-10-17T00:54:55;9.95;;;4.95;;
12441;SDS011;6285;48.804;9.220;2022-10-17T00:57:24;6.20;;;4.55;;
12441;SDS011;6285;48.804;9.220;2022-10-17T00:59:53;12.15;;;4.63;;
12441;SDS011;6285;48.804;9.220;2022-10-17T01:02:21;9.40;;;4.30;;
12441;SDS011;6285;48.804;9.220;2022-10-17T01:04:49;7.22;;;4.85;;
12441;SDS011;6285;48.804;9.220;2022-10-17T01:07:17;9.55;;;4.45;;
12441;SDS011;6285;48.804;9.220;2022-10-17T01:09:44;14.52;;;5.20;;
12441;SDS011;6285;48.804;9.220;2022-10-17T01:12:13;14.82;;;5.30;;
12441;SDS011;6285;48.804;9.220;2022-10-17T01:14:45;12.82;;;4.43;;
12441;SDS011;6285;48.804;9.220;2022-10-17T01:17:15;7.90;;;4.43;;
12441;SDS011;6285;48.804;9.220;2022-10-17T01:19:53;7.65;;;4.40;;
12441;SDS011;6285;48.804;9.220;2022-10-17T01:22:25;7.55;;;4.10;;
12441;SDS011;6285;48.804;9.220;2022-10-17T01:25:00;9.15;;;4.20;;
12441;SDS011;6285;48.804;9.220;2022-10-17T01:27:48;5.18;;;3.60;;
12441;SDS011;6285;48.804;9.220;2022-10-17T01:33:07;7.20;;;3.95;;
12441;SDS011;6285;48.804;9.220;2022-10-17T01:35:37;6.63;;;4.05;;
12441;SDS011;6285;48.804;9.220;2022-10-17T01:38:06;12.05;;;3.70;;
12441;SDS011;6285;48.804;9.220;2022-10-17T01:40:35;8.40;;;4.15;;
12441;SDS011;6285;48.804;9.220;2022-10-17T01:43:06;7.18;;;3.60;;
12441;SDS011;6285;48.804;9.220;2022-10-17T01:45:36;6.18;;;3.72;;
12441;SDS011;6285;48.804;9.220;2022-10-17T01:48:04;8.50;;;3.50;;
12441;SDS011;6285;48.804;9.220;2022-10-17T01:50:35;9.07;;;4.03;;
12441;SDS011;6285;48.804;9.220;2022-10-17T01:53:07;14.43;;;4.57;;
12441;SDS011;6285;48.804;9.220;2022-10-17T01:55:38;11.55;;;4.07;;
12441;SDS011;6285;48.804;9.220;2022-10-17T01:58:07;9.88;;;4.25;;
12441;SDS011;6285;48.804;9.220;2022-10-17T02:00:35;7.32;;;3.95;;
12441;SDS011;6285;48.804;9.220;2022-10-17T02:03:04;11.45;;;3.95;;
12441;SDS011;6285;48.804;9.220;2022-10-17T02:05:35;4.88;;;3.78;;
12441;SDS011;6285;48.804;9.220;2022-10-17T02:08:04;9.75;;;4.25;;
12441;SDS011;6285;48.804;9.220;2022-10-17T02:10:33;9.13;;;4.20;;
12441;SDS011;6285;48.804;9.220;2022-10-17T02:13:03;8.43;;;3.92;;
12441;SDS011;6285;48.804;9.220;2022-10-17T02:15:36;6.85;;;3.70;;
12441;SDS011;6285;48.804;9.220;2022-10-17T02:18:15;11.85;;;4.63;;
12441;SDS011;6285;48.804;9.220;2022-10-17T02:20:48;10.13;;;4.10;;
12441;SDS011;6285;48.804;9.220;2022-10-17T02:23:17;11.43;;;4.38;;
12441;SDS011;6285;48.804;9.220;2022-10-17T02:26:03;11.55;;;4.15;;
12441;SDS011;6285;48.804;9.220;2022-10-17T02:28:34;9.60;;;4.38;;
12441;SDS011;6285;48.804;9.220;2022-10-17T02:31:03;7.10;;;4.47;;
12441;SDS011;6285;48.804;9.220;2022-10-17T02:33:33;9.00;;;4.50;;
12441;SDS011;6285;48.804;9.220;2022-10-17T02:36:03;8.18;;;4.07;;
12441;SDS011;6285;48.804;9.220;2022-10-17T02:38:31;7.18;;;4.38;;
12441;SDS011;6285;48.804;9.220;2022-10-17T02:40:59;9.95;;;4.38;;
12441;SDS011;6285;48.804;9.220;2022-10-17T02:43:27;8.32;;;3.95;;
12441;SDS011;6285;48.804;9.220;2022-10-17T02:45:54;7.47;;;4.22;;
12441;SDS011;6285;48.804;9.220;2022-10-17T02:48:23;9.57;;;4.28;;
12441;SDS011;6285;48.804;9.220;2022-10-17T02:50:53;10.40;;;4.35;;
12441;SDS011;6285;48.804;9.220;2022-10-17T02:53:26;9.32;;;4.68;;
12441;SDS011;6285;48.804;9.220;2022-10-17T02:55:55;7.43;;;4.38;;
12441;SDS011;6285;48.804;9.220;2022-10-17T02:58:24;11.43;;;5.82;;
12441;SDS011;6285;48.804;9.220;2022-10-17T03:00:55;9.32;;;4.88;;
12441;SDS011;6285;48.804;9.220;2022-10-17T03:03:23;9.48;;;5.07;;
12441;SDS011;6285;48.804;9.220;2022-10-17T03:05:51;17.58;;;5.05;;
12441;SDS011;6285;48.804;9.220;2022-10-17T03:08:18;11.77;;;5.32;;
12441;SDS011;6285;48.804;9.220;2022-10-17T03:10:46;11.57;;;5.10;;
12441;SDS011;6285;48.804;9.220;2022-10-17T03:13:14;15.10;;;5.40;;
12441;SDS011;6285;48.804;9.220;2022-10-17T03:15:41;8.35;;;5.30;;
12441;SDS011;6285;48.804;9.220;2022-10-17T03:18:08;10.57;;;4.97;;
12441;SDS011;6285;48.804;9.220;2022-10-17T03:20:36;7.93;;;4.85;;
12441;SDS011;6285;48.804;9.220;2022-10-17T03:23:03;10.90;;;5.72;;
12441;SDS011;6285;48.804;9.220;2022-10-17T03:25:30;15.10;;;5.50;;
12441;SDS011;6285;48.804;9.220;2022-10-17T03:27:58;9.38;;;5.38;;
12441;SDS011;6285;48.804;9.220;2022-10-17T03:30:26;12.20;;;5.30;;
12441;SDS011;6285;48.804;9.220;2022-10-17T03:32:53;8.32;;;5.70;;
12441;SDS011;6285;48.804;9.220;2022-10-17T03:35:20;12.60;;;7.38;;
12441;SDS011;6285;48.804;9.220;2022-10-17T03:37:47;9.82;;;4.88;;
12441;SDS011;6285;48.804;9.220;2022-10-17T03:40:14;9.85;;;4.47;;
12441;SDS011;6285;48.804;9.220;2022-10-17T03:42:42;11.82;;;4.60;;
12441;SDS011;6285;48.804;9.220;2022-10-17T03:45:10;7.07;;;4.32;;
12441;SDS011;6285;48.804;9.220;2022-10-17T03:47:37;8.60;;;4.55;;
12441;SDS011;6285;48.804;9.220;2022-10-17T03:50:05;16.95;;;5.47;;
12441;SDS011;6285;48.804;9.220;2022-10-17T03:52:32;9.73;;;4.70;;
12441;SDS011;6285;48.804;9.220;2022-10-17T03:54:59;9.35;;;5.10;;
12441;SDS011;6285;48.804;9.220;2022-10-17T03:57:26;8.05;;;4.95;;
12441;SDS011;6285;48.804;9.220;2022-10-17T03:59:53;9.73;;;5.20;;
12441;SDS011;6285;48.804;9.220;2022-10-17T04:02:22;13.05;;;4.82;;
12441;SDS011;6285;48.804;9.220;2022-10-17T04:04:49;10.35;;;4.60;;
12441;SDS011;6285;48.804;9.220;2022-10-17T04:07:16;10.35;;;5.30;;
12441;SDS011;6285;48.804;9.220;2022-10-17T04:09:43;8.20;;;4.65;;
12441;SDS011;6285;48.804;9.220;2022-10-17T04:12:10;14.75;;;5.50;;
12441;SDS011;6285;48.804;9.220;2022-10-17T04:14:38;15.57;;;5.00;;
12441;SDS011;6285;48.804;9.220;2022-10-17T04:17:05;8.52;;;5.20;;
12441;SDS011;6285;48.804;9.220;2022-10-17T04:19:33;10.30;;;5.10;;
12441;SDS011;6285;48.804;9.220;2022-10-17T04:22:00;8.05;;;5.40;;
12441;SDS011;6285;48.804;9.220;2022-10-17T04:24:28;12.60;;;4.88;;
12441;SDS011;6285;48.804;9.220;2022-10-17T04:26:55;11.27;;;5.97;;
12441;SDS011;6285;48.804;9.220;2022-10-17T04:29:22;7.90;;;4.97;;
12441;SDS011;6285;48.804;9.220;2022-10-17T04:31:52;8.52;;;4.63;;
12441;SDS011;6285;48.804;9.220;2022-10-17T04:34:20;11.18;;;4.75;;
12441;SDS011;6285;48.804;9.220;2022-10-17T04:36:48;8.45;;;4.60;;
12441;SDS011;6285;48.804;9.220;2022-10-17T04:39:16;9.60;;;4.57;;
12441;SDS011;6285;48.804;9.220;2022-10-17T04:41:43;9.05;;;4.97;;
12441;SDS011;6285;48.804;9.220;2022-10-17T04:44:10;11.02;;;4.57;;
12441;SDS011;6285;48.804;9.220;2022-10-17T04:46:37;5.90;;;4.70;;
12441;SDS011;6285;48.804;9.220;2022-10-17T04:49:04;8.40;;;5.30;;
12441;SDS011;6285;48.804;9.220;2022-10-17T04:51:32;9.63;;;5.47;;
12441;SDS011;6285;48.804;9.220;2022-10-17T04:54:00;16.67;;;6.38;;
12441;SDS011;6285;48.804;9.220;2022-10-17T04:56:27;14.55;;;6.60;;
12441;SDS011;6285;48.804;9.220;2022-10-17T04:58:54;16.27;;;6.47;;
12441;SDS011;6285;48.804;9.220;2022-10-17T05:01:22;11.32;;;6.38;;
12441;SDS011;6285;48.804;9.220;2022-10-17T05:03:49;8.75;;;6.55;;
12441;SDS011;6285;48.804;9.220;2022-10-17T05:06:17;18.30;;;6.50;;
12441;SDS011;6285;48.804;9.220;2022-10-17T05:08:45;13.98;;;6.70;;
12441;SDS011;6285;48.804;9.220;2022-10-17T05:11:18;13.93;;;6.10;;
12441;SDS011;6285;48.804;9.220;2022-10-17T05:13:48;10.77;;;5.75;;
12441;SDS011;6285;48.804;9.220;2022-10-17T05:16:15;10.35;;;5.60;;
12441;SDS011;6285;48.804;9.220;2022-10-17T05:18:42;10.32;;;5.70;;
12441;SDS011;6285;48.804;9.220;2022-10-17T05:21:09;9.00;;;5.32;;
12441;SDS011;6285;48.804;9.220;2022-10-17T05:23:36;10.95;;;5.97;;
12441;SDS011;6285;48.804;9.220;2022-10-17T05:26:04;12.18;;;5.82;;
12441;SDS011;6285;48.804;9.220;2022-10-17T05:28:32;11.07;;;5.25;;
12441;SDS011;6285;48.804;9.220;2022-10-17T05:31:01;12.48;;;6.50;;
12441;SDS011;6285;48.804;9.220;2022-10-17T05:33:28;12.70;;;5.43;;
12441;SDS011;6285;48.804;9.220;2022-10-17T05:35:55;9.68;;;5.65;;
12441;SDS011;6285;48.804;9.220;2022-10-17T05:38:22;8.80;;;5.53;;
12441;SDS011;6285;48.804;9.220;2022-10-17T05:40:49;8.65;;;5.70;;
12441;SDS011;6285;48.804;9.220;2022-10-17T05:43:17;7.85;;;5.85;;
12441;SDS011;6285;48.804;9.220;2022-10-17T05:45:45;11.32;;;5.85;;
12441;SDS011;6285;48.804;9.220;2022-10-17T05:48:12;13.48;;;6.05;;
12441;SDS011;6285;48.804;9.220;2022-10-17T05:50:39;15.18;;;5.88;;
12441;SDS011;6285;48.804;9.220;2022-10-17T05:53:06;10.63;;;5.03;;
12441;SDS011;6285;48.804;9.220;2022-10-17T05:55:34;17.00;;;6.50;;
12441;SDS011;6285;48.804;9.220;2022-10-17T05:58:01;11.23;;;5.80;;
12441;SDS011;6285;48.804;9.220;2022-10-17T06:00:28;14.00;;;6.38;;
12441;SDS011;6285;48.804;9.220;2022-10-17T06:02:57;11.70;;;6.10;;
12441;SDS011;6285;48.804;9.220;2022-10-17T06:05:24;9.20;;;5.93;;
12441;SDS011;6285;48.804;9.220;2022-10-17T06:07:51;14.32;;;6.40;;
12441;SDS011;6285;48.804;9.220;2022-10-17T06:10:18;11.80;;;5.82;;
12441;SDS011;6285;48.804;9.220;2022-10-17T06:12:45;14.73;;;6.57;;
12441;SDS011;6285;48.804;9.220;2022-10-17T06:15:12;11.80;;;6.35;;
12441;SDS011;6285;48.804;9.220;2022-10-17T06:17:39;16.60;;;6.07;;
12441;SDS011;6285;48.804;9.220;2022-10-17T06:20:08;13.82;;;6.15;;
12441;SDS011;6285;48.804;9.220;2022-10-17T06:22:35;16.48;;;6.43;;
12441;SDS011;6285;48.804;9.220;2022-10-17T06:25:02;17.00;;;6.60;;
12441;SDS011;6285;48.804;9.220;2022-10-17T06:27:30;15.38;;;6.55;;
12441;SDS011;6285;48.804;9.220;2022-10-17T06:29:57;15.70;;;6.00;;
12441;SDS011;6285;48.804;9.220;2022-10-17T06:32:24;11.63;;;6.15;;
12441;SDS011;6285;48.804;9.220;2022-10-17T06:34:51;10.10;;;5.63;;
12441;SDS011;6285;48.804;9.220;2022-10-17T06:37:19;12.07;;;5.88;;
12441;SDS011;6285;48.804;9.220;2022-10-17T06:39:46;11.02;;;5.80;;
12441;SDS011;6285;48.804;9.220;2022-10-17T06:42:13;15.90;;;5.97;;
12441;SDS011;6285;48.804;9.220;2022-10-17T06:44:40;8.75;;;5.85;;
12441;SDS011;6285;48.804;9.220;2022-10-17T06:47:07;14.75;;;6.05;;
12441;SDS011;6285;48.804;9.220;2022-10-17T06:49:35;9.75;;;5.78;;
12441;SDS011;6285;48.804;9.220;2022-10-17T06:52:02;12.18;;;5.55;;
12441;SDS011;6285;48.804;9.220;2022-10-17T06:54:30;12.10;;;5.85;;
12441;SDS011;6285;48.804;9.220;2022-10-17T06:56:57;11.73;;;5.22;;
12441;SDS011;6285;48.804;9.220;2022-10-17T06:59:24;9.23;;;4.57;;
12441;SDS011;6285;48.804;9.220;2022-10-17T07:01:51;14.73;;;5.20;;
12441;SDS011;6285;48.804;9.220;2022-10-17T07:04:18;10.93;;;4.78;;
12441;SDS011;6285;48.804;9.220;2022-10-17T07:06:45;12.50;;;4.70;;
12441;SDS011;6285;48.804;9.220;2022-10-17T07:09:12;9.00;;;4.50;;
12441;SDS011;6285;48.804;9.220;2022-10-17T07:11:42;10.63;;;4.43;;
12441;SDS011;6285;48.804;9.220;2022-10-17T07:14:09;9.27;;;4.15;;
12441;SDS011;6285;48.804;9.220;2022-10-17T07:16:36;12.13;;;4.72;;
12441;SDS011;6285;48.804;9.220;2022-10-17T07:19:03;11.32;;;4.30;;
12441;SDS011;6285;48.804;9.220;2022-10-17T07:21:30;10.77;;;5.45;;
12441;SDS011;6285;48.804;9.220;2022-10-17T07:23:57;8.93;;;5.88;;
12441;SDS011;6285;48.804;9.220;2022-10-17T07:26:24;9.77;;;5.15;;
12441;SDS011;6285;48.804;9.220;2022-10-17T07:28:53;11.10;;;5.30;;
12441;SDS011;6285;48.804;9.220;2022-10-17T07:31:21;11.57;;;5.68;;
12441;SDS011;6285;48.804;9.220;2022-10-17T07:33:48;7.53;;;4.70;;
12441;SDS011;6285;48.804;9.220;2022-10-17T07:36:16;9.57;;;4.80;;
12441;SDS011;6285;48.804;9.220;2022-10-17T07:38:43;10.98;;;4.85;;
12441;SDS011;6285;48.804;9.220;2022-10-17T07:41:10;14.93;;;5.07;;
12441;SDS011;6285;48.804;9.220;2022-10-17T07:43:38;10.75;;;5.03;;
12441;SDS011;6285;48.804;9.220;2022-10-17T07:46:08;9.10;;;4.68;;
12441;SDS011;6285;48.804;9.220;2022-10-17T07:48:36;16.02;;;5.25;;
12441;SDS011;6285;48.804;9.220;2022-10-17T07:51:05;8.00;;;4.70;;
12441;SDS011;6285;48.804;9.220;2022-10-17T07:53:34;10.57;;;5.00;;
12441;SDS011;6285;48.804;9.220;2022-10-17T07:56:02;7.40;;;4.53;;
12441;SDS011;6285;48.804;9.220;2022-10-17T07:58:30;12.70;;;4.43;;
12441;SDS011;6285;48.804;9.220;2022-10-17T08:00:59;13.77;;;4.60;;
12441;SDS011;6285;48.804;9.220;2022-10-17T08:03:27;12.05;;;4.10;;
12441;SDS011;6285;48.804;9.220;2022-10-17T08:05:57;9.27;;;3.65;;
12441;SDS011;6285;48.804;9.220;2022-10-17T08:08:25;6.97;;;3.70;;
12441;SDS011;6285;48.804;9.220;2022-10-17T08:10:52;7.80;;;3.92;;
12441;SDS011;6285;48.804;9.220;2022-10-17T08:13:19;7.90;;;3.60;;
12441;SDS011;6285;48.804;9.220;2022-10-17T08:15:46;14.13;;;4.53;;
12441;SDS011;6285;48.804;9.220;2022-10-17T08:18:13;5.18;;;3.10;;
12441;SDS011;6285;48.804;9.220;2022-10-17T08:20:43;8.52;;;3.47;;
12441;SDS011;6285;48.804;9.220;2022-10-17T08:23:10;6.47;;;3.70;;
12441;SDS011;6285;48.804;9.220;2022-10-17T08:25:37;8.02;;;3.15;;
12441;SDS011;6285;48.804;9.220;2022-10-17T08:28:04;7.03;;;3.35;;
12441;SDS011;6285;48.804;9.220;2022-10-17T08:30:31;7.28;;;3.25;;
12441;SDS011;6285;48.804;9.220;2022-10-17T08:32:58;7.82;;;3.45;;
12441;SDS011;6285;48.804;9.220;2022-10-17T08:35:28;7.25;;;3.30;;
12441;SDS011;6285;48.804;9.220;2022-10-17T08:37:58;7.22;;;3.67;;
12441;SDS011;6285;48.804;9.220;2022-10-17T08:40:26;7.93;;;3.33;;
12441;SDS011;6285;48.804;9.220;2022-10-17T08:43:07;7.78;;;3.30;;
12441;SDS011;6285;48.804;9.220;2022-10-17T08:45:38;8.15;;;3.45;;
12441;SDS011;6285;48.804;9.220;2022-10-17T08:48:09;9.35;;;3.45;;
12441;SDS011;6285;48.804;9.220;2022-10-17T08:50:37;10.95;;;4.07;;
12441;SDS011;6285;48.804;9.220;2022-10-17T08:53:07;6.88;;;3.22;;
12441;SDS011;6285;48.804;9.220;2022-10-17T08:55:38;10.93;;;4.00;;
12441;SDS011;6285;48.804;9.220;2022-10-17T08:58:10;7.97;;;3.45;;
12441;SDS011;6285;48.804;9.220;2022-10-17T09:00:38;7.75;;;3.80;;
12441;SDS011;6285;48.804;9.220;2022-10-17T09:03:14;8.32;;;4.00;;
12441;SDS011;6285;48.804;9.220;2022-10-17T09:05:47;9.52;;;3.75;;
12441;SDS011;6285;48.804;9.220;2022-10-17T09:08:27;8.85;;;4.22;;
12441;SDS011;6285;48.804;9.220;2022-10-17T09:10:57;8.68;;;4.35;;
12441;SDS011;6285;48.804;9.220;2022-10-17T09:13:31;11.77;;;4.50;;
12441;SDS011;6285;48.804;9.220;2022-10-17T09:16:07;7.07;;;3.90;;
12441;SDS011;6285;48.804;9.220;2022-10-17T09:18:36;7.47;;;3.47;;
12441;SDS011;6285;48.804;9.220;2022-10-17T09:21:07;11.13;;;3.55;;
12441;SDS011;6285;48.804;9.220;2022-10-17T09:23:38;7.18;;;3.30;;
12441;SDS011;6285;48.804;9.220;2022-10-17T09:26:07;9.35;;;3.80;;
12441;SDS011;6285;48.804;9.220;2022-10-17T09:28:37;10.60;;;3.80;;
12441;SDS011;6285;48.804;9.220;2022-10-17T09:31:05;11.10;;;3.70;;
12441;SDS011;6285;48.804;9.220;2022-10-17T09:33:39;8.15;;;3.38;;
12441;SDS011;6285;48.804;9.220;2022-10-17T09:36:08;9.00;;;3.60;;
12441;SDS011;6285;48.804;9.220;2022-10-17T09:38:39;6.00;;;2.90;;
12441;SDS011;6285;48.804;9.220;2022-10-17T09:41:11;7.55;;;3.10;;
12441;SDS011;6285;48.804;9.220;2022-10-17T09:43:39;8.15;;;3.17;;
12441;SDS011;6285;48.804;9.220;2022-10-17T09:46:06;5.30;;;3.05;;
12441;SDS011;6285;48.804;9.220;2022-10-17T09:48:35;9.55;;;3.45;;
12441;SDS011;6285;48.804;9.220;2022-10-17T09:51:04;7.45;;;3.35;;
12441;SDS011;6285;48.804;9.220;2022-10-17T09:53:33;5.38;;;3.20;;
12441;SDS011;6285;48.804;9.220;2022-10-17T09:56:04;9.20;;;3.22;;
12441;SDS011;6285;48.804;9.220;2022-10-17T09:58:41;9.43;;;3.35;;
12441;SDS011;6285;48.804;9.220;2022-10-17T10:01:15;10.48;;;3.20;;
12441;SDS011;6285;48.804;9.220;2022-10-17T10:03:42;5.35;;;2.65;;
12441;SDS011;6285;48.804;9.220;2022-10-17T10:06:12;7.00;;;3.05;;
12441;SDS011;6285;48.804;9.220;2022-10-17T10:08:46;9.13;;;3.33;;
12441;SDS011;6285;48.804;9.220;2022-10-17T10:11:15;7.82;;;3.15;;
12441;SDS011;6285;48.804;9.220;2022-10-17T10:13:42;8.27;;;3.42;;
12441;SDS011;6285;48.804;9.220;2022-10-17T10:16:13;8.45;;;3.63;;
12441;SDS011;6285;48.804;9.220;2022-10-17T10:18:40;6.00;;;3.33;;
12441;SDS011;6285;48.804;9.220;2022-10-17T10:21:09;7.45;;;3.78;;
12441;SDS011;6285;48.804;9.220;2022-10-17T10:23:37;8.93;;;3.88;;
12441;SDS011;6285;48.804;9.220;2022-10-17T10:26:14;4.78;;;3.20;;
12441;SDS011;6285;48.804;9.220;2022-10-17T10:28:49;9.27;;;3.78;;
12441;SDS011;6285;48.804;9.220;2022-10-17T10:31:24;8.32;;;3.20;;
12441;SDS011;6285;48.804;9.220;2022-10-17T10:33:51;7.53;;;3.28;;
12441;SDS011;6285;48.804;9.220;2022-10-17T10:36:18;8.93;;;3.00;;
12441;SDS011;6285;48.804;9.220;2022-10-17T10:38:50;5.13;;;2.85;;
12441;SDS011;6285;48.804;9.220;2022-10-17T10:41:17;5.65;;;3.22;;
12441;SDS011;6285;48.804;9.220;2022-10-17T10:43:46;8.85;;;3.17;;
12441;SDS011;6285;48.804;9.220;2022-10-17T10:46:17;9.70;;;3.72;;
12441;SDS011;6285;48.804;9.220;2022-10-17T10:48:49;8.48;;;4.07;;
12441;SDS011;6285;48.804;9.220;2022-10-17T10:51:17;12.80;;;3.95;;
12441;SDS011;6285;48.804;9.220;2022-10-17T10:53:46;11.10;;;4.10;;
12441;SDS011;6285;48.804;9.220;2022-10-17T10:56:16;5.93;;;3.28;;
12441;SDS011;6285;48.804;9.220;2022-10-17T10:58:50;9.40;;;3.88;;
12441;SDS011;6285;48.804;9.220;2022-10-17T11:01:20;9.98;;;4.07;;
12441;SDS011;6285;48.804;9.220;2022-10-17T11:03:52;9.82;;;3.70;;
12441;SDS011;6285;48.804;9.220;2022-10-17T11:06:22;6.78;;;3.25;;
12441;SDS011;6285;48.804;9.220;2022-10-17T11:09:03;6.47;;;3.42;;
12441;SDS011;6285;48.804;9.220;2022-10-17T11:11:33;7.47;;;3.05;;
12441;SDS011;6285;48.804;9.220;2022-10-17T11:14:04;6.70;;;2.97;;
12441;SDS011;6285;48.804;9.220;2022-10-17T11:16:36;4.68;;;3.03;;
12441;SDS011;6285;48.804;9.220;2022-10-17T11:19:08;10.52;;;3.72;;
12441;SDS011;6285;48.804;9.220;2022-10-17T11:21:39;6.32;;;3.25;;
12441;SDS011;6285;48.804;9.220;2022-10-17T11:24:09;13.93;;;3.53;;
12441;SDS011;6285;48.804;9.220;2022-10-17T11:26:40;9.07;;;3.08;;
12441;SDS011;6285;48.804;9.220;2022-10-17T11:29:10;9.70;;;3.30;;
12441;SDS011;6285;48.804;9.220;2022-10-17T11:31:40;8.38;;;3.45;;
12441;SDS011;6285;48.804;9.220;2022-10-17T11:34:09;8.27;;;3.28;;
12441;SDS011;6285;48.804;9.220;2022-10-17T11:36:39;7.47;;;2.97;;
12441;SDS011;6285;48.804;9.220;2022-10-17T11:39:09;6.25;;;2.90;;
12441;SDS011;6285;48.804;9.220;2022-10-17T11:41:38;6.15;;;3.05;;
12441;SDS011;6285;48.804;9.220;2022-10-17T11:44:11;13.75;;;3.08;;
12441;SDS011;6285;48.804;9.220;2022-10-17T11:46:43;11.27;;;3.42;;
12441;SDS011;6285;48.804;9.220;2022-10-17T11:49:14;6.65;;;3.03;;
12441;SDS011;6285;48.804;9.220;2022-10-17T11:51:42;7.25;;;2.78;;
12441;SDS011;6285;48.804;9.220;2022-10-17T11:54:12;6.53;;;2.50;;
12441;SDS011;6285;48.804;9.220;2022-10-17T11:56:47;8.93;;;3.10;;
12441;SDS011;6285;48.804;9.220;2022-10-17T12:02:14;7.70;;;3.00;;
12441;SDS011;6285;48.804;9.220;2022-10-17T12:04:47;7.30;;;2.33;;
12441;SDS011;6285;48.804;9.220;2022-10-17T12:07:21;5.88;;;1.90;;
12441;SDS011;6285;48.804;9.220;2022-10-17T12:09:51;8.27;;;2.10;;
12441;SDS011;6285;48.804;9.220;2022-10-17T12:12:24;4.78;;;2.58;;
12441;SDS011;6285;48.804;9.220;2022-10-17T12:14:52;5.68;;;2.30;;
12441;SDS011;6285;48.804;9.220;2022-10-17T12:17:22;5.75;;;2.05;;
12441;SDS011;6285;48.804;9.220;2022-10-17T12:19:51;5.13;;;2.00;;
12441;SDS011;6285;48.804;9.220;2022-10-17T12:22:19;6.57;;;2.60;;
12441;SDS011;6285;48.804;9.220;2022-10-17T12:24:52;6.18;;;2.53;;
12441;SDS011;6285;48.804;9.220;2022-10-17T12:27:37;5.03;;;2.10;;
12441;SDS011;6285;48.804;9.220;2022-10-17T12:30:14;3.88;;;1.90;;
12441;SDS011;6285;48.804;9.220;2022-10-17T12:32:53;5.25;;;2.20;;
12441;SDS011;6285;48.804;9.220;2022-10-17T12:35:22;3.42;;;1.90;;
12441;SDS011;6285;48.804;9.220;2022-10-17T12:38:04;5.05;;;1.90;;
12441;SDS011;6285;48.804;9.220;2022-10-17T12:40:50;4.05;;;2.00;;
12441;SDS011;6285;48.804;9.220;2022-10-17T12:46:03;6.57;;;2.13;;
12441;SDS011;6285;48.804;9.220;2022-10-17T12:51:18;7.45;;;2.40;;
12441;SDS011;6285;48.804;9.220;2022-10-17T12:53:46;4.50;;;1.95;;
12441;SDS011;6285;48.804;9.220;2022-10-17T12:56:16;3.78;;;1.70;;
12441;SDS011;6285;48.804;9.220;2022-10-17T12:58:44;4.55;;;1.77;;
12441;SDS011;6285;48.804;9.220;2022-10-17T13:01:14;3.92;;;1.70;;
12441;SDS011;6285;48.804;9.220;2022-10-17T13:03:44;5.50;;;3.38;;
12441;SDS011;6285;48.804;9.220;2022-10-17T13:06:13;5.63;;;1.90;;
12441;SDS011;6285;48.804;9.220;2022-10-17T13:08:47;5.68;;;1.70;;
12441;SDS011;6285;48.804;9.220;2022-10-17T13:11:17;6.30;;;2.20;;
12441;SDS011;6285;48.804;9.220;2022-10-17T13:13:48;4.93;;;1.77;;
12441;SDS011;6285;48.804;9.220;2022-10-17T13:16:26;3.95;;;1.58;;
12441;SDS011;6285;48.804;9.220;2022-10-17T13:18:53;4.60;;;1.83;;
12441;SDS011;6285;48.804;9.220;2022-10-17T13:21:21;4.45;;;1.92;;
12441;SDS011;6285;48.804;9.220;2022-10-17T13:23:50;9.32;;;2.17;;
12441;SDS011;6285;48.804;9.220;2022-10-17T13:26:19;5.63;;;2.47;;
12441;SDS011;6285;48.804;9.220;2022-10-17T13:28:59;5.75;;;2.30;;
12441;SDS011;6285;48.804;9.220;2022-10-17T13:31:28;6.47;;;2.22;;
12441;SDS011;6285;48.804;9.220;2022-10-17T13:33:56;7.00;;;2.20;;
12441;SDS011;6285;48.804;9.220;2022-10-17T13:36:23;9.50;;;2.60;;
12441;SDS011;6285;48.804;9.220;2022-10-17T13:38:52;5.38;;;2.28;;
12441;SDS011;6285;48.804;9.220;2022-10-17T13:41:21;5.05;;;2.17;;
12441;SDS011;6285;48.804;9.220;2022-10-17T13:43:49;4.68;;;1.70;;
12441;SDS011;6285;48.804;9.220;2022-10-17T13:46:19;2.65;;;2.13;;
12441;SDS011;6285;48.804;9.220;2022-10-17T13:48:47;3.47;;;1.83;;
12441;SDS011;6285;48.804;9.220;2022-10-17T13:51:15;8.77;;;2.40;;
12441;SDS011;6285;48.804;9.220;2022-10-17T13:53:42;4.60;;;2.30;;
12441;SDS011;6285;48.804;9.220;2022-10-17T13:56:17;6.15;;;2.45;;
12441;SDS011;6285;48.804;9.220;2022-10-17T13:58:45;4.18;;;2.15;;
12441;SDS011;6285;48.804;9.220;2022-10-17T14:01:13;3.65;;;2.08;;
12441;SDS011;6285;48.804;9.220;2022-10-17T14:03:40;4.30;;;2.42;;
12441;SDS011;6285;48.804;9.220;2022-10-17T14:06:11;7.00;;;2.45;;
12441;SDS011;6285;48.804;9.220;2022-10-17T14:08:45;5.95;;;2.97;;
12441;SDS011;6285;48.804;9.220;2022-10-17T14:11:21;8.15;;;2.30;;
12441;SDS011;6285;48.804;9.220;2022-10-17T14:13:50;6.13;;;2.28;;
12441;SDS011;6285;48.804;9.220;2022-10-17T14:16:18;4.57;;;1.98;;
12441;SDS011;6285;48.804;9.220;2022-10-17T14:18:46;4.10;;;2.50;;
12441;SDS011;6285;48.804;9.220;2022-10-17T14:21:17;6.72;;;2.47;;
12441;SDS011;6285;48.804;9.220;2022-10-17T14:23:44;4.85;;;2.38;;
12441;SDS011;6285;48.804;9.220;2022-10-17T14:26:13;5.22;;;2.17;;
12441;SDS011;6285;48.804;9.220;2022-10-17T14:28:41;4.15;;;2.10;;
12441;SDS011;6285;48.804;9.220;2022-10-17T14:33:54;4.88;;;1.90;;
12441;SDS011;6285;48.804;9.220;2022-10-17T14:36:32;4.15;;;2.05;;
12441;SDS011;6285;48.804;9.220;2022-10-17T14:38:59;6.60;;;2.80;;
12441;SDS011;6285;48.804;9.220;2022-10-17T14:41:29;7.93;;;2.20;;
12441;SDS011;6285;48.804;9.220;2022-10-17T14:43:59;4.38;;;2.00;;
12441;SDS011;6285;48.804;9.220;2022-10-17T14:46:28;6.10;;;2.15;;
12441;SDS011;6285;48.804;9.220;2022-10-17T14:48:56;2.97;;;2.13;;
12441;SDS011;6285;48.804;9.220;2022-10-17T14:51:24;8.23;;;2.40;;
12441;SDS011;6285;48.804;9.220;2022-10-17T14:53:58;13.63;;;7.55;;
12441;SDS011;6285;48.804;9.220;2022-10-17T14:56:27;4.72;;;2.50;;
12441;SDS011;6285;48.804;9.220;2022-10-17T14:58:54;4.32;;;2.53;;
12441;SDS011;6285;48.804;9.220;2022-10-17T15:01:21;4.35;;;2.28;;
12441;SDS011;6285;48.804;9.220;2022-10-17T15:03:49;4.13;;;2.15;;
12441;SDS011;6285;48.804;9.220;2022-10-17T15:06:17;2.58;;;2.00;;
12441;SDS011;6285;48.804;9.220;2022-10-17T15:08:44;6.57;;;2.20;;
12441;SDS011;6285;48.804;9.220;2022-10-17T15:11:11;4.88;;;1.90;;
12441;SDS011;6285;48.804;9.220;2022-10-17T15:13:38;4.28;;;2.00;;
12441;SDS011;6285;48.804;9.220;2022-10-17T15:16:08;3.00;;;2.25;;
12441;SDS011;6285;48.804;9.220;2022-10-17T15:18:40;8.68;;;2.30;;
12441;SDS011;6285;48.804;9.220;2022-10-17T15:21:10;3.53;;;2.35;;
12441;SDS011;6285;48.804;9.220;2022-10-17T15:23:37;5.78;;;2.60;;
12441;SDS011;6285;48.804;9.220;2022-10-17T15:26:07;6.07;;;2.63;;